createdAt,value
2022-09-30T00:01:44.072Z,100573.84
2022-09-30T00:04:16.383Z,100574.84
2022-09-30T00:06:47.642Z,100587.56
2022-09-30T00:09:16.611Z,100584.31
2022-09-30T00:11:46.981Z,100575.69
2022-09-30T00:14:21.218Z,100582.06
2022-09-30T00:16:50.405Z,100576.69
2022-09-30T00:19:18.491Z,100576.69
2022-09-30T00:21:48.132Z,100576.69
2022-09-30T00:24:16.173Z,100581.06
2022-09-30T00:26:44.166Z,100583.75
2022-09-30T00:29:12.497Z,100590.66
2022-09-30T00:31:40.890Z,100589.94
2022-09-30T00:34:10.350Z,100595.19
2022-09-30T00:36:43.677Z,100599.94
2022-09-30T00:39:16.255Z,100606.72
2022-09-30T00:41:45.252Z,100609.53
2022-09-30T00:44:48.014Z,100597.53
2022-09-30T00:47:48.356Z,100599.78
2022-09-30T00:50:35.080Z,100599.09
2022-09-30T00:53:13.501Z,100601.94
2022-09-30T00:55:49.218Z,100604.03
2022-09-30T00:58:25.732Z,100605.88
2022-09-30T01:00:53.905Z,100605.44
2022-09-30T01:03:23.333Z,100604.28
2022-09-30T01:05:52.527Z,100605.81
2022-09-30T01:08:22.294Z,100610.59
2022-09-30T01:10:51.824Z,100610.16
2022-09-30T01:13:22.684Z,100611.00
2022-09-30T01:16:06.931Z,100612.78
2022-09-30T01:18:50.115Z,100609.94
2022-09-30T01:22:05.158Z,100609.78
2022-09-30T01:24:57.527Z,100615.78
2022-09-30T01:27:48.615Z,100608.31
2022-09-30T01:30:21.944Z,100614.34
2022-09-30T01:33:19.746Z,100608.16
2022-09-30T01:36:06.441Z,100619.72
2022-09-30T01:38:44.497Z,100606.91
2022-09-30T01:41:22.362Z,100621.72
2022-09-30T01:44:03.147Z,100611.63
2022-09-30T01:46:37.300Z,100614.72
2022-09-30T01:49:17.159Z,100610.91
2022-09-30T01:51:53.574Z,100601.91
2022-09-30T01:54:28.123Z,100599.06
2022-09-30T01:57:02.120Z,100606.06
2022-09-30T01:59:37.515Z,100606.47
2022-09-30T02:02:11.478Z,100614.06
2022-09-30T02:04:45.677Z,100614.16
2022-09-30T02:07:17.389Z,100614.41
2022-09-30T02:09:52.081Z,100603.22
2022-09-30T02:12:22.634Z,100611.25
2022-09-30T02:14:54.557Z,100607.00
2022-09-30T02:17:27.221Z,100612.22
2022-09-30T02:20:01.130Z,100608.72
2022-09-30T02:22:40.773Z,100599.25
2022-09-30T02:25:12.690Z,100602.63
2022-09-30T02:27:46.863Z,100592.22
2022-09-30T02:30:15.947Z,100589.53
2022-09-30T02:32:51.087Z,100592.78
2022-09-30T02:35:26.936Z,100582.81
2022-09-30T02:38:00.744Z,100586.19
2022-09-30T02:40:36.009Z,100584.34
2022-09-30T02:43:10.659Z,100584.50
2022-09-30T02:45:47.694Z,100579.13
2022-09-30T02:48:25.528Z,100574.34
2022-09-30T02:51:01.659Z,100574.44
2022-09-30T02:53:35.318Z,100563.19
2022-09-30T02:56:17.866Z,100566.81
2022-09-30T02:58:47.154Z,100565.00
2022-09-30T03:01:17.432Z,100563.44
2022-09-30T03:03:49.250Z,100569.03
2022-09-30T03:06:19.858Z,100568.47
2022-09-30T03:08:48.509Z,100571.25
2022-09-30T03:11:19.632Z,100576.91
2022-09-30T03:14:29.346Z,100576.44
2022-09-30T03:17:14.489Z,100590.06
2022-09-30T03:19:59.791Z,100589.06
2022-09-30T03:22:53.157Z,100595.16
2022-09-30T03:25:31.774Z,100589.53
2022-09-30T03:28:11.831Z,100581.25
2022-09-30T03:30:54.236Z,100584.25
2022-09-30T03:33:26.598Z,100568.53
2022-09-30T03:36:02.056Z,100579.41
2022-09-30T03:38:41.344Z,100586.81
2022-09-30T03:41:18.362Z,100583.28
2022-09-30T03:43:50.885Z,100581.44
2022-09-30T03:46:25.962Z,100585.47
2022-09-30T03:48:58.255Z,100577.84
2022-09-30T03:51:26.578Z,100580.63
2022-09-30T03:53:56.441Z,100577.41
2022-09-30T03:56:28.584Z,100582.88
2022-09-30T03:58:58.664Z,100583.84
2022-09-30T04:01:26.716Z,100578.63
2022-09-30T04:03:55.244Z,100584.59
2022-09-30T04:06:25.553Z,100590.63
2022-09-30T04:08:54.387Z,100574.44
2022-09-30T04:11:23.879Z,100583.78
2022-09-30T04:13:52.004Z,100572.22
2022-09-30T04:16:20.504Z,100558.28
2022-09-30T04:18:48.605Z,100548.09
2022-09-30T04:21:17.394Z,100547.25
2022-09-30T04:23:45.792Z,100534.00
2022-09-30T04:26:15.946Z,100539.22
2022-09-30T04:28:45.547Z,100537.53
2022-09-30T04:31:15.393Z,100526.13
2022-09-30T04:33:44.831Z,100524.00
2022-09-30T04:36:13.005Z,100529.81
2022-09-30T04:38:41.327Z,100525.03
2022-09-30T04:41:18.071Z,100517.38
2022-09-30T04:43:48.694Z,100514.00
2022-09-30T04:46:19.208Z,100509.94
2022-09-30T04:48:48.722Z,100516.47
2022-09-30T04:51:18.108Z,100508.59
2022-09-30T04:53:47.041Z,100515.94
2022-09-30T04:56:16.889Z,100506.34
2022-09-30T04:58:45.286Z,100498.75
2022-09-30T05:01:16.371Z,100494.72
2022-09-30T05:03:44.851Z,100491.03
2022-09-30T05:06:13.448Z,100497.41
2022-09-30T05:08:46.147Z,100481.75
2022-09-30T05:11:17.527Z,100475.09
2022-09-30T05:13:46.217Z,100465.13
2022-09-30T05:16:16.862Z,100472.00
2022-09-30T05:18:47.137Z,100469.91
2022-09-30T05:21:17.321Z,100467.38
2022-09-30T05:23:45.794Z,100469.91
2022-09-30T05:26:14.580Z,100463.69
2022-09-30T05:28:43.571Z,100476.66
2022-09-30T05:31:12.397Z,100475.41
2022-09-30T05:33:42.168Z,100468.47
2022-09-30T05:36:13.309Z,100466.34
2022-09-30T05:38:41.345Z,100475.81
2022-09-30T05:41:11.405Z,100490.75
2022-09-30T05:43:40.565Z,100488.78
2022-09-30T05:46:09.073Z,100476.78
2022-09-30T05:48:37.220Z,100476.63
2022-09-30T05:51:07.742Z,100480.88
2022-09-30T05:53:38.755Z,100476.81
2022-09-30T05:56:07.308Z,100473.69
2022-09-30T05:58:35.503Z,100458.00
2022-09-30T06:01:13.127Z,100447.69
2022-09-30T06:03:42.484Z,100446.38
2022-09-30T06:06:11.874Z,100436.53
2022-09-30T06:08:40.376Z,100448.78
2022-09-30T06:11:12.920Z,100435.22
2022-09-30T06:13:42.143Z,100436.63
2022-09-30T06:16:11.940Z,100428.28
2022-09-30T06:18:41.311Z,100420.09
2022-09-30T06:21:13.192Z,100422.88
2022-09-30T06:23:41.340Z,100418.91
2022-09-30T06:26:13.482Z,100420.16
2022-09-30T06:28:43.053Z,100423.38
2022-09-30T06:31:11.588Z,100416.41
2022-09-30T06:33:39.945Z,100423.41
2022-09-30T06:36:07.990Z,100423.69
2022-09-30T06:38:39.949Z,100422.06
2022-09-30T06:41:08.459Z,100428.66
2022-09-30T06:43:44.357Z,100426.75
2022-09-30T06:46:22.004Z,100431.66
2022-09-30T06:49:07.415Z,100424.41
2022-09-30T06:51:39.092Z,100415.91
2022-09-30T06:54:09.264Z,100417.50
2022-09-30T06:56:37.511Z,100410.69
2022-09-30T06:59:05.550Z,100412.91
2022-09-30T07:01:33.566Z,100415.97
2022-09-30T07:04:08.033Z,100419.03
2022-09-30T07:06:36.259Z,100417.56
2022-09-30T07:09:04.412Z,100422.63
2022-09-30T07:11:34.610Z,100418.63
2022-09-30T07:14:04.422Z,100413.63
2022-09-30T07:16:33.885Z,100423.22
2022-09-30T07:19:03.991Z,100417.91
2022-09-30T07:21:32.296Z,100407.00
2022-09-30T07:24:00.507Z,100399.13
2022-09-30T07:26:29.197Z,100395.13
2022-09-30T07:29:00.181Z,100390.28
2022-09-30T07:31:34.089Z,100395.56
2022-09-30T07:34:03.034Z,100386.16
2022-09-30T07:36:33.470Z,100380.44
2022-09-30T07:39:07.059Z,100386.06
2022-09-30T07:41:37.835Z,100386.25
2022-09-30T07:44:12.315Z,100388.13
2022-09-30T07:46:40.713Z,100397.44
2022-09-30T07:49:13.564Z,100397.09
2022-09-30T07:51:45.623Z,100377.63
2022-09-30T07:54:16.440Z,100368.88
2022-09-30T07:57:08.743Z,100351.53
2022-09-30T07:59:37.693Z,100349.72
2022-09-30T08:02:06.973Z,100348.75
2022-09-30T08:04:36.575Z,100335.78
2022-09-30T08:07:07.331Z,100319.81
2022-09-30T08:09:35.563Z,100319.47
2022-09-30T08:12:05.345Z,100321.19
2022-09-30T08:14:34.950Z,100322.19
2022-09-30T08:17:02.968Z,100305.31
2022-09-30T08:19:33.759Z,100293.91
2022-09-30T08:24:31.252Z,100276.72
2022-09-30T08:26:59.791Z,100276.06
2022-09-30T08:29:54.853Z,100279.06
2022-09-30T08:32:17.753Z,100282.94
2022-09-30T08:34:46.086Z,100285.09
2022-09-30T08:37:14.152Z,100282.06
2022-09-30T08:39:43.550Z,100270.56
2022-09-30T08:42:45.341Z,100264.00
2022-09-30T08:45:23.490Z,100245.31
2022-09-30T08:48:02.758Z,100253.41
2022-09-30T08:50:42.065Z,100247.63
2022-09-30T08:53:17.034Z,100247.31
2022-09-30T08:55:47.769Z,100245.78
2022-09-30T08:58:23.875Z,100245.09
2022-09-30T09:00:56.388Z,100238.84
2022-09-30T09:03:29.959Z,100232.63
2022-09-30T09:06:06.839Z,100244.94
2022-09-30T09:08:56.759Z,100243.56
2022-09-30T09:11:48.953Z,100238.81
2022-09-30T09:14:30.285Z,100249.09
2022-09-30T09:17:15.865Z,100248.91
2022-09-30T09:19:54.798Z,100254.09
2022-09-30T09:22:25.099Z,100251.03
2022-09-30T09:24:54.876Z,100238.72
2022-09-30T09:27:27.231Z,100234.97
2022-09-30T09:30:06.481Z,100228.53
2022-09-30T09:32:36.023Z,100233.88
2022-09-30T09:35:16.447Z,100231.47
2022-09-30T09:38:14.230Z,100233.28
2022-09-30T09:40:57.611Z,100229.53
2022-09-30T09:43:34.122Z,100231.25
2022-09-30T09:46:11.789Z,100220.78
2022-09-30T09:48:39.976Z,100219.28
2022-09-30T09:51:19.186Z,100202.44
2022-09-30T09:53:51.037Z,100198.06
2022-09-30T09:56:21.296Z,100194.34
2022-09-30T09:59:15.269Z,100193.84
2022-09-30T10:01:46.325Z,100186.13
2022-09-30T10:04:22.025Z,100186.97
2022-09-30T10:06:54.133Z,100189.81
2022-09-30T10:09:33.805Z,100179.56
2022-09-30T10:12:28.436Z,100173.69
2022-09-30T10:15:03.235Z,100160.22
2022-09-30T10:17:33.189Z,100151.44
2022-09-30T10:20:06.844Z,100155.16
2022-09-30T10:22:37.796Z,100150.91
2022-09-30T10:25:25.459Z,100146.53
2022-09-30T10:27:56.693Z,100138.78
2022-09-30T10:30:33.739Z,100136.06
2022-09-30T10:33:04.426Z,100136.06
2022-09-30T10:35:32.614Z,100130.03
2022-09-30T10:38:02.647Z,100126.16
2022-09-30T10:40:32.110Z,100109.09
2022-09-30T10:43:00.287Z,100101.66
2022-09-30T10:45:34.642Z,100093.28
2022-09-30T10:48:07.765Z,100072.31
2022-09-30T10:50:36.271Z,100074.13
2022-09-30T10:53:16.626Z,100074.78
2022-09-30T10:55:46.133Z,100091.75
2022-09-30T10:58:25.358Z,100085.69
2022-09-30T11:01:01.558Z,100094.16
2022-09-30T11:03:35.845Z,100076.56
2022-09-30T11:06:05.217Z,100080.09
2022-09-30T11:08:40.308Z,100088.84
2022-09-30T11:11:14.203Z,100085.81
2022-09-30T11:13:50.822Z,100077.16
2022-09-30T11:16:26.321Z,100071.75
2022-09-30T11:19:02.756Z,100080.97
2022-09-30T11:21:37.713Z,100062.91
2022-09-30T11:24:20.010Z,100053.06
2022-09-30T11:26:58.630Z,100054.19
2022-09-30T11:29:45.335Z,100028.19
2022-09-30T11:32:24.174Z,100007.16
2022-09-30T11:35:04.560Z,100006.97
2022-09-30T11:37:58.657Z,100018.94
2022-09-30T11:40:36.282Z,100024.25
2022-09-30T11:43:15.710Z,100017.75
2022-09-30T11:46:08.365Z,100021.00
2022-09-30T11:48:47.903Z,100010.75
2022-09-30T11:51:24.225Z,100018.84
2022-09-30T11:54:04.519Z,100023.59
2022-09-30T11:56:54.462Z,100009.09
2022-09-30T11:59:27.607Z,100004.53
2022-09-30T12:01:59.237Z,100001.16
2022-09-30T12:04:32.334Z,100002.47
2022-09-30T12:07:06.425Z,99992.50
2022-09-30T12:09:38.633Z,99981.06
2022-09-30T12:12:16.029Z,99970.25
2022-09-30T12:14:48.525Z,99974.00
2022-09-30T12:17:27.095Z,99963.34
2022-09-30T12:19:58.683Z,99965.69
2022-09-30T12:22:31.788Z,99948.19
2022-09-30T12:24:59.790Z,99953.16
2022-09-30T12:27:39.289Z,99956.13
2022-09-30T12:30:17.881Z,99951.91
2022-09-30T12:33:22.345Z,99949.03
2022-09-30T12:36:18.568Z,99933.84
2022-09-30T12:39:29.198Z,99936.75
2022-09-30T12:42:46.960Z,99921.19
2022-09-30T12:45:56.530Z,99902.84
2022-09-30T12:48:33.198Z,99895.44
2022-09-30T12:51:02.136Z,99889.09
2022-09-30T12:53:33.166Z,99885.81
2022-09-30T12:56:07.157Z,99877.25
2022-09-30T12:58:38.704Z,99855.50
2022-09-30T13:01:12.698Z,99858.97
2022-09-30T13:04:16.625Z,99846.66
2022-09-30T13:07:13.772Z,99833.38
2022-09-30T13:09:58.441Z,99823.41
2022-09-30T13:12:29.156Z,99815.50
2022-09-30T13:15:34.603Z,99809.25
2022-09-30T13:18:29.395Z,99800.16
2022-09-30T13:21:18.966Z,99783.97
2022-09-30T13:23:48.502Z,99774.25
2022-09-30T13:26:46.536Z,99773.59
2022-09-30T13:29:38.390Z,99769.03
2022-09-30T13:32:07.780Z,99756.66
2022-09-30T13:34:50.793Z,99754.53
2022-09-30T13:38:07.235Z,99741.31
2022-09-30T13:40:57.559Z,99731.41
2022-09-30T13:43:28.509Z,99726.00
2022-09-30T13:46:00.354Z,99714.84
2022-09-30T13:48:33.645Z,99692.59
2022-09-30T13:51:08.394Z,99687.44
2022-09-30T13:53:41.100Z,99686.44
2022-09-30T13:56:15.018Z,99682.59
2022-09-30T13:59:14.598Z,99667.41
2022-09-30T14:02:00.793Z,99654.56
2022-09-30T14:05:01.740Z,99649.78
2022-09-30T14:07:43.358Z,99640.66
2022-09-30T14:10:35.018Z,99635.69
2022-09-30T14:13:32.546Z,99645.66
2022-09-30T14:16:28.385Z,99633.63
2022-09-30T14:19:22.361Z,99641.56
2022-09-30T14:21:56.534Z,99633.91
2022-09-30T14:24:31.721Z,99639.94
2022-09-30T14:27:29.472Z,99654.28
2022-09-30T14:30:06.079Z,99672.78
2022-09-30T14:32:40.172Z,99669.50
2022-09-30T14:35:10.231Z,99659.28
2022-09-30T14:37:42.730Z,99663.53
2022-09-30T14:40:13.393Z,99660.63
2022-09-30T14:42:45.569Z,99656.28
2022-09-30T14:45:20.123Z,99652.56
2022-09-30T14:47:52.597Z,99645.53
2022-09-30T14:50:24.650Z,99639.94
2022-09-30T14:52:58.046Z,99612.13
2022-09-30T14:55:30.475Z,99596.50
2022-09-30T14:58:22.730Z,99590.78
2022-09-30T15:00:59.053Z,99582.91
2022-09-30T15:03:28.769Z,99580.06
2022-09-30T15:05:58.149Z,99577.97
2022-09-30T15:08:26.416Z,99570.09
2022-09-30T15:10:56.773Z,99574.69
2022-09-30T15:13:31.245Z,99563.47
2022-09-30T15:15:59.525Z,99557.25
2022-09-30T15:18:30.582Z,99548.13
2022-09-30T15:21:00.942Z,99538.97
2022-09-30T15:23:32.489Z,99536.66
2022-09-30T15:26:01.874Z,99529.59
2022-09-30T15:28:31.332Z,99515.25
2022-09-30T15:31:00.342Z,99517.97
2022-09-30T15:33:31.998Z,99518.19
2022-09-30T15:36:04.508Z,99505.09
2022-09-30T15:38:34.398Z,99499.88
2022-09-30T15:41:05.584Z,99500.69
2022-09-30T15:43:39.791Z,99494.50
2022-09-30T15:46:23.653Z,99511.13
2022-09-30T15:48:51.851Z,99499.09
2022-09-30T15:51:30.227Z,99494.28
2022-09-30T15:54:00.466Z,99490.78
2022-09-30T15:56:35.513Z,99490.34
2022-09-30T15:59:07.883Z,99478.69
2022-09-30T16:01:38.661Z,99482.88
2022-09-30T16:04:11.134Z,99490.38
2022-09-30T16:06:46.692Z,99514.09
2022-09-30T16:09:24.934Z,99512.84
2022-09-30T16:12:03.046Z,99515.81
2022-09-30T16:14:34.755Z,99497.69
2022-09-30T16:17:06.519Z,99508.72
2022-09-30T16:19:37.967Z,99502.25
2022-09-30T16:22:06.269Z,99515.41
2022-09-30T16:25:02.518Z,99509.97
2022-09-30T16:27:32.822Z,99508.09
2022-09-30T16:30:03.175Z,99505.38
2022-09-30T16:32:40.230Z,99512.50
2022-09-30T16:35:17.640Z,99523.31
2022-09-30T16:37:45.852Z,99520.81
2022-09-30T16:40:20.903Z,99502.28
2022-09-30T16:42:49.053Z,99516.25
2022-09-30T16:45:19.227Z,99536.63
2022-09-30T16:47:47.456Z,99550.81
2022-09-30T16:50:29.835Z,99544.34
2022-09-30T16:52:57.806Z,99521.25
2022-09-30T16:55:26.638Z,99513.31
2022-09-30T16:57:57.278Z,99511.03
2022-09-30T17:00:28.043Z,99520.81
2022-09-30T17:02:56.303Z,99527.06
2022-09-30T17:05:25.574Z,99521.66
2022-09-30T17:07:56.330Z,99532.88
2022-09-30T17:10:28.051Z,99522.88
2022-09-30T17:12:56.933Z,99527.28
2022-09-30T17:15:26.398Z,99524.13
2022-09-30T17:17:54.365Z,99515.81
2022-09-30T17:20:22.925Z,99537.50
2022-09-30T17:22:51.910Z,99534.97
2022-09-30T17:25:20.499Z,99523.09
2022-09-30T17:27:50.136Z,99545.41
2022-09-30T17:30:18.828Z,99543.31
2022-09-30T17:32:48.597Z,99542.91
2022-09-30T17:35:16.831Z,99545.63
2022-09-30T17:37:47.808Z,99571.66
2022-09-30T17:40:33.485Z,99573.72
2022-09-30T17:43:11.741Z,99552.06
2022-09-30T17:45:41.184Z,99536.22
2022-09-30T17:48:11.481Z,99534.97
2022-09-30T17:50:44.259Z,99540.81
2022-09-30T17:53:14.242Z,99536.63
2022-09-30T17:55:43.776Z,99547.47
2022-09-30T17:58:12.524Z,99559.13
2022-09-30T18:00:40.843Z,99551.63
2022-09-30T18:03:10.885Z,99549.56
2022-09-30T18:05:39.141Z,99554.16
2022-09-30T18:08:07.365Z,99550.59
2022-09-30T18:10:37.886Z,99544.16
2022-09-30T18:13:06.076Z,99572.25
2022-09-30T18:15:34.385Z,99574.56
2022-09-30T18:18:02.224Z,99573.28
2022-09-30T18:20:31.617Z,99587.25
2022-09-30T18:22:59.660Z,99580.59
2022-09-30T18:25:27.725Z,99589.09
2022-09-30T18:27:58.782Z,99587.22
2022-09-30T18:30:27.157Z,99583.09
2022-09-30T18:32:56.382Z,99575.34
2022-09-30T18:35:25.524Z,99589.53
2022-09-30T18:37:55.203Z,99573.69
2022-09-30T18:40:25.897Z,99581.16
2022-09-30T18:42:56.587Z,99599.72
2022-09-30T18:45:24.984Z,99573.47
2022-09-30T18:47:56.711Z,99579.91
2022-09-30T18:50:25.807Z,99604.91
2022-09-30T18:52:57.818Z,99599.91
2022-09-30T18:55:26.160Z,99600.34
2022-09-30T18:57:55.409Z,99606.13
2022-09-30T19:00:23.405Z,99604.09
2022-09-30T19:02:53.431Z,99602.00
2022-09-30T19:05:22.852Z,99615.91
2022-09-30T19:07:50.698Z,99620.50
2022-09-30T19:10:20.287Z,99625.09
2022-09-30T19:12:48.204Z,99638.63
2022-09-30T19:15:17.215Z,99607.78
2022-09-30T19:17:45.496Z,99621.13
2022-09-30T19:20:17.683Z,99624.47
2022-09-30T19:22:46.840Z,99616.09
2022-09-30T19:25:16.489Z,99631.50
2022-09-30T19:27:46.782Z,99646.28
2022-09-30T19:30:16.346Z,99629.19
2022-09-30T19:32:44.242Z,99637.09
2022-09-30T19:35:14.242Z,99624.00
2022-09-30T19:37:54.782Z,99655.41
2022-09-30T19:40:28.180Z,99628.56
2022-09-30T19:42:57.745Z,99641.25
2022-09-30T19:45:27.262Z,99644.38
2022-09-30T19:47:55.509Z,99647.50
2022-09-30T19:50:23.427Z,99624.78
2022-09-30T19:52:57.472Z,99633.94
2022-09-30T19:55:26.146Z,99621.25
2022-09-30T19:57:54.285Z,99630.19
2022-09-30T20:00:24.175Z,99621.06
2022-09-30T20:02:52.847Z,99635.81
2022-09-30T20:05:21.588Z,99633.13
2022-09-30T20:07:51.235Z,99635.22
2022-09-30T20:10:19.560Z,99645.59
2022-09-30T20:12:47.556Z,99634.38
2022-09-30T20:15:33.150Z,99639.34
2022-09-30T20:18:02.624Z,99643.72
2022-09-30T20:20:37.213Z,99654.72
2022-09-30T20:23:05.821Z,99657.00
2022-09-30T20:25:35.622Z,99667.59
2022-09-30T20:28:05.016Z,99669.31
2022-09-30T20:30:33.952Z,99674.53
2022-09-30T20:33:03.516Z,99683.44
2022-09-30T20:35:31.907Z,99676.38
2022-09-30T20:38:00.171Z,99673.84
2022-09-30T20:40:28.238Z,99683.44
2022-09-30T20:43:02.077Z,99677.66
2022-09-30T20:45:30.617Z,99686.16
2022-09-30T20:47:59.213Z,99690.06
2022-09-30T20:50:38.133Z,99722.97
2022-09-30T20:53:09.278Z,99699.88
2022-09-30T20:55:39.234Z,99705.47
2022-09-30T20:58:09.122Z,99694.06
2022-09-30T21:00:39.999Z,99703.22
2022-09-30T21:03:10.014Z,99689.06
2022-09-30T21:05:40.320Z,99702.78
2022-09-30T21:08:08.568Z,99716.28
2022-09-30T21:10:38.790Z,99719.84
2022-09-30T21:13:11.608Z,99687.59
2022-09-30T21:15:40.299Z,99704.66
2022-09-30T21:18:09.050Z,99704.47
2022-09-30T21:20:37.938Z,99718.38
2022-09-30T21:23:07.846Z,99720.44
2022-09-30T21:25:36.038Z,99731.47
2022-09-30T21:28:04.839Z,99711.31
2022-09-30T21:30:32.820Z,99721.69
2022-09-30T21:33:00.930Z,99740.00
2022-09-30T21:35:28.913Z,99717.09
2022-09-30T21:37:56.766Z,99724.19
2022-09-30T21:40:28.100Z,99718.75
2022-09-30T21:42:56.125Z,99697.34
2022-09-30T21:45:25.329Z,99741.25
2022-09-30T21:48:02.140Z,99725.66
2022-09-30T21:50:32.863Z,99739.81
2022-09-30T21:53:00.944Z,99733.94
2022-09-30T21:55:31.071Z,99733.72
2022-09-30T21:57:59.035Z,99736.03
2022-09-30T22:00:27.065Z,99749.59
2022-09-30T22:02:55.307Z,99720.44
2022-09-30T22:05:23.254Z,99724.38
2022-09-30T22:07:51.230Z,99745.44
2022-09-30T22:10:19.130Z,99738.75
2022-09-30T22:12:50.063Z,99758.94
2022-09-30T22:15:18.320Z,99769.13
2022-09-30T22:17:46.324Z,99759.56
2022-09-30T22:20:14.523Z,99762.69
2022-09-30T22:22:42.602Z,99763.13
2022-09-30T22:25:10.981Z,99772.09
2022-09-30T22:27:39.042Z,99758.72
2022-09-30T22:30:10.743Z,99771.66
2022-09-30T22:32:38.787Z,99758.50
2022-09-30T22:35:25.230Z,99787.63
2022-09-30T22:38:10.463Z,99782.41
2022-09-30T22:40:38.455Z,99781.53
2022-09-30T22:43:06.867Z,99776.97
2022-09-30T22:45:36.765Z,99787.16
2022-09-30T22:48:04.944Z,99790.69
2022-09-30T22:50:36.793Z,99808.97
2022-09-30T22:53:04.975Z,99800.47
2022-09-30T22:55:33.345Z,99799.25
2022-09-30T22:58:01.390Z,99796.09
2022-09-30T23:00:29.576Z,99793.97
2022-09-30T23:02:59.252Z,99799.44
2022-09-30T23:05:27.423Z,99832.28
2022-09-30T23:08:10.294Z,99817.28
2022-09-30T23:10:39.343Z,99817.28
2022-09-30T23:13:09.005Z,99817.31
2022-09-30T23:15:36.997Z,99832.91
2022-09-30T23:18:08.759Z,99823.13
2022-09-30T23:20:36.729Z,99806.91
2022-09-30T23:23:04.686Z,99816.91
2022-09-30T23:25:32.600Z,99827.72
2022-09-30T23:28:00.657Z,99820.59
2022-09-30T23:30:29.028Z,99830.22
2022-09-30T23:32:58.162Z,99839.41
2022-09-30T23:35:27.718Z,99846.06
2022-09-30T23:37:55.623Z,99847.31
2022-09-30T23:40:23.716Z,99849.38
2022-09-30T23:42:51.765Z,99882.72
2022-09-30T23:45:19.742Z,99845.25
2022-09-30T23:47:49.248Z,99846.72
2022-09-30T23:50:17.379Z,99859.88
2022-09-30T23:52:46.979Z,99872.94
2022-09-30T23:55:15.077Z,99866.94
2022-09-30T23:57:47.072Z,99855.28
